sensor_id;sensor_type;location;lat;lon;timestamp;P1;durP1;ratioP1;P2;durP2;ratioP2
19554;SDS011;9924;50.828;6.440;2023-03-01T00:02:05;13.93;;;7.30;;
19554;SDS011;9924;50.828;6.440;2023-03-01T00:04:50;14.80;;;7.60;;
19554;SDS011;9924;50.828;6.440;2023-03-01T00:07:34;12.60;;;7.70;;
19554;SDS011;9924;50.828;6.440;2023-03-01T00:10:19;11.83;;;7.33;;
19554;SDS011;9924;50.828;6.440;2023-03-01T00:13:04;13.53;;;7.20;;
19554;SDS011;9924;50.828;6.440;2023-03-01T00:15:48;13.30;;;7.80;;
19554;SDS011;9924;50.828;6.440;2023-03-01T00:18:33;11.57;;;6.83;;
19554;SDS011;9924;50.828;6.440;2023-03-01T00:21:18;10.07;;;6.53;;
19554;SDS011;9924;50.828;6.440;2023-03-01T00:24:06;12.70;;;7.83;;
19554;SDS011;9924;50.828;6.440;2023-03-01T00:26:55;11.20;;;7.03;;
19554;SDS011;9924;50.828;6.440;2023-03-01T00:29:40;13.43;;;7.57;;
19554;SDS011;9924;50.828;6.440;2023-03-01T00:32:24;14.73;;;7.83;;
19554;SDS011;9924;50.828;6.440;2023-03-01T00:35:08;15.07;;;8.23;;
19554;SDS011;9924;50.828;6.440;2023-03-01T00:37:53;12.73;;;8.07;;
19554;SDS011;9924;50.828;6.440;2023-03-01T00:40:41;16.17;;;8.30;;
19554;SDS011;9924;50.828;6.440;2023-03-01T00:43:25;16.97;;;7.57;;
19554;SDS011;9924;50.828;6.440;2023-03-01T00:46:14;13.03;;;8.07;;
19554;SDS011;9924;50.828;6.440;2023-03-01T00:49:00;15.07;;;8.73;;
19554;SDS011;9924;50.828;6.440;2023-03-01T00:51:45;11.20;;;7.70;;
19554;SDS011;9924;50.828;6.440;2023-03-01T00:54:31;14.27;;;8.30;;
19554;SDS011;9924;50.828;6.440;2023-03-01T00:57:16;16.10;;;8.63;;
19554;SDS011;9924;50.828;6.440;2023-03-01T01:00:01;13.47;;;7.67;;
19554;SDS011;9924;50.828;6.440;2023-03-01T01:02:46;15.90;;;8.70;;
19554;SDS011;9924;50.828;6.440;2023-03-01T01:05:33;14.07;;;8.40;;
19554;SDS011;9924;50.828;6.440;2023-03-01T01:08:18;16.87;;;8.03;;
19554;SDS011;9924;50.828;6.440;2023-03-01T01:11:03;13.90;;;7.33;;
19554;SDS011;9924;50.828;6.440;2023-03-01T01:13:48;14.60;;;8.43;;
19554;SDS011;9924;50.828;6.440;2023-03-01T01:16:33;14.37;;;7.93;;
19554;SDS011;9924;50.828;6.440;2023-03-01T01:19:18;12.67;;;7.40;;
19554;SDS011;9924;50.828;6.440;2023-03-01T01:22:03;13.07;;;8.00;;
19554;SDS011;9924;50.828;6.440;2023-03-01T01:24:47;14.80;;;7.80;;
19554;SDS011;9924;50.828;6.440;2023-03-01T01:27:31;15.83;;;7.73;;
19554;SDS011;9924;50.828;6.440;2023-03-01T01:30:16;13.67;;;7.60;;
19554;SDS011;9924;50.828;6.440;2023-03-01T01:33:01;11.17;;;7.70;;
19554;SDS011;9924;50.828;6.440;2023-03-01T01:35:45;12.77;;;7.80;;
19554;SDS011;9924;50.828;6.440;2023-03-01T01:38:30;14.43;;;8.00;;
19554;SDS011;9924;50.828;6.440;2023-03-01T01:41:14;12.43;;;7.50;;
19554;SDS011;9924;50.828;6.440;2023-03-01T01:46:59;11.50;;;6.90;;
19554;SDS011;9924;50.828;6.440;2023-03-01T01:49:49;16.00;;;8.37;;
19554;SDS011;9924;50.828;6.440;2023-03-01T01:52:37;14.23;;;8.20;;
19554;SDS011;9924;50.828;6.440;2023-03-01T01:55:23;15.57;;;8.60;;
19554;SDS011;9924;50.828;6.440;2023-03-01T01:58:11;15.47;;;8.30;;
19554;SDS011;9924;50.828;6.440;2023-03-01T02:00:59;21.07;;;9.10;;
19554;SDS011;9924;50.828;6.440;2023-03-01T02:03:45;15.23;;;9.20;;
19554;SDS011;9924;50.828;6.440;2023-03-01T02:06:39;17.83;;;9.70;;
19554;SDS011;9924;50.828;6.440;2023-03-01T02:09:30;14.67;;;8.20;;
19554;SDS011;9924;50.828;6.440;2023-03-01T02:12:18;15.87;;;8.23;;
19554;SDS011;9924;50.828;6.440;2023-03-01T02:15:05;17.70;;;8.70;;
19554;SDS011;9924;50.828;6.440;2023-03-01T02:17:50;16.43;;;8.57;;
19554;SDS011;9924;50.828;6.440;2023-03-01T02:23:24;13.37;;;8.50;;
19554;SDS011;9924;50.828;6.440;2023-03-01T02:26:19;14.23;;;8.53;;
19554;SDS011;9924;50.828;6.440;2023-03-01T02:29:05;19.03;;;8.80;;
19554;SDS011;9924;50.828;6.440;2023-03-01T02:31:50;16.17;;;9.53;;
19554;SDS011;9924;50.828;6.440;2023-03-01T02:34:39;15.53;;;9.27;;
19554;SDS011;9924;50.828;6.440;2023-03-01T02:37:25;14.53;;;8.60;;
19554;SDS011;9924;50.828;6.440;2023-03-01T02:40:11;12.93;;;8.33;;
19554;SDS011;9924;50.828;6.440;2023-03-01T02:43:00;13.90;;;7.90;;
19554;SDS011;9924;50.828;6.440;2023-03-01T02:45:48;15.00;;;8.97;;
19554;SDS011;9924;50.828;6.440;2023-03-01T02:48:44;14.60;;;8.17;;
19554;SDS011;9924;50.828;6.440;2023-03-01T02:54:50;16.70;;;9.03;;
19554;SDS011;9924;50.828;6.440;2023-03-01T02:57:48;14.83;;;8.60;;
19554;SDS011;9924;50.828;6.440;2023-03-01T03:00:36;14.83;;;8.27;;
19554;SDS011;9924;50.828;6.440;2023-03-01T03:03:27;13.23;;;7.73;;
19554;SDS011;9924;50.828;6.440;2023-03-01T03:06:11;14.97;;;8.43;;
19554;SDS011;9924;50.828;6.440;2023-03-01T03:08:56;15.93;;;8.73;;
19554;SDS011;9924;50.828;6.440;2023-03-01T03:11:40;16.47;;;8.63;;
19554;SDS011;9924;50.828;6.440;2023-03-01T03:14:26;17.90;;;8.17;;
19554;SDS011;9924;50.828;6.440;2023-03-01T03:17:10;14.87;;;8.40;;
19554;SDS011;9924;50.828;6.440;2023-03-01T03:19:54;15.97;;;8.43;;
19554;SDS011;9924;50.828;6.440;2023-03-01T03:22:39;15.07;;;9.37;;
19554;SDS011;9924;50.828;6.440;2023-03-01T03:25:24;14.33;;;8.57;;
19554;SDS011;9924;50.828;6.440;2023-03-01T03:28:10;18.87;;;10.30;;
19554;SDS011;9924;50.828;6.440;2023-03-01T03:30:55;16.63;;;9.27;;
19554;SDS011;9924;50.828;6.440;2023-03-01T03:33:39;13.47;;;8.27;;
19554;SDS011;9924;50.828;6.440;2023-03-01T03:36:25;19.20;;;9.00;;
19554;SDS011;9924;50.828;6.440;2023-03-01T03:39:10;15.33;;;8.50;;
19554;SDS011;9924;50.828;6.440;2023-03-01T03:41:55;16.17;;;8.13;;
19554;SDS011;9924;50.828;6.440;2023-03-01T03:44:39;17.30;;;9.13;;
19554;SDS011;9924;50.828;6.440;2023-03-01T03:47:24;15.10;;;8.87;;
19554;SDS011;9924;50.828;6.440;2023-03-01T03:50:12;16.47;;;8.37;;
19554;SDS011;9924;50.828;6.440;2023-03-01T03:53:00;16.27;;;8.60;;
19554;SDS011;9924;50.828;6.440;2023-03-01T03:55:45;18.27;;;9.27;;
19554;SDS011;9924;50.828;6.440;2023-03-01T03:58:32;15.40;;;8.83;;
19554;SDS011;9924;50.828;6.440;2023-03-01T04:01:16;14.97;;;8.00;;
19554;SDS011;9924;50.828;6.440;2023-03-01T04:04:01;15.20;;;8.53;;
19554;SDS011;9924;50.828;6.440;2023-03-01T04:06:47;16.50;;;8.33;;
19554;SDS011;9924;50.828;6.440;2023-03-01T04:09:32;14.20;;;8.37;;
19554;SDS011;9924;50.828;6.440;2023-03-01T04:12:16;12.70;;;8.07;;
19554;SDS011;9924;50.828;6.440;2023-03-01T04:15:06;15.70;;;8.70;;
19554;SDS011;9924;50.828;6.440;2023-03-01T04:17:58;15.13;;;9.13;;
19554;SDS011;9924;50.828;6.440;2023-03-01T04:20:42;17.37;;;10.40;;
19554;SDS011;9924;50.828;6.440;2023-03-01T04:23:28;20.70;;;9.17;;
19554;SDS011;9924;50.828;6.440;2023-03-01T04:26:13;14.23;;;8.17;;
19554;SDS011;9924;50.828;6.440;2023-03-01T04:28:57;14.37;;;8.43;;
19554;SDS011;9924;50.828;6.440;2023-03-01T04:31:41;15.80;;;8.80;;
19554;SDS011;9924;50.828;6.440;2023-03-01T04:34:25;14.20;;;8.70;;
19554;SDS011;9924;50.828;6.440;2023-03-01T04:37:10;15.67;;;8.80;;
19554;SDS011;9924;50.828;6.440;2023-03-01T04:39:54;16.77;;;9.30;;
19554;SDS011;9924;50.828;6.440;2023-03-01T04:42:39;18.50;;;9.63;;
19554;SDS011;9924;50.828;6.440;2023-03-01T04:45:23;21.80;;;9.40;;
19554;SDS011;9924;50.828;6.440;2023-03-01T04:48:08;18.33;;;9.33;;
19554;SDS011;9924;50.828;6.440;2023-03-01T04:50:53;18.30;;;9.57;;
19554;SDS011;9924;50.828;6.440;2023-03-01T04:53:37;18.37;;;9.40;;
19554;SDS011;9924;50.828;6.440;2023-03-01T04:56:23;19.30;;;9.73;;
19554;SDS011;9924;50.828;6.440;2023-03-01T04:59:07;16.00;;;9.13;;
19554;SDS011;9924;50.828;6.440;2023-03-01T05:01:54;23.47;;;10.10;;
19554;SDS011;9924;50.828;6.440;2023-03-01T05:04:40;20.60;;;9.67;;
19554;SDS011;9924;50.828;6.440;2023-03-01T05:07:27;18.87;;;9.73;;
19554;SDS011;9924;50.828;6.440;2023-03-01T05:10:11;16.70;;;9.77;;
19554;SDS011;9924;50.828;6.440;2023-03-01T05:12:56;18.07;;;9.53;;
19554;SDS011;9924;50.828;6.440;2023-03-01T05:15:41;17.10;;;9.67;;
19554;SDS011;9924;50.828;6.440;2023-03-01T05:18:26;17.97;;;9.33;;
19554;SDS011;9924;50.828;6.440;2023-03-01T05:21:12;17.67;;;9.47;;
19554;SDS011;9924;50.828;6.440;2023-03-01T05:23:59;19.00;;;9.73;;
19554;SDS011;9924;50.828;6.440;2023-03-01T05:26:44;16.93;;;9.53;;
19554;SDS011;9924;50.828;6.440;2023-03-01T05:29:31;22.73;;;9.97;;
19554;SDS011;9924;50.828;6.440;2023-03-01T05:32:18;15.73;;;9.20;;
19554;SDS011;9924;50.828;6.440;2023-03-01T05:35:03;18.50;;;9.43;;
19554;SDS011;9924;50.828;6.440;2023-03-01T05:37:48;21.43;;;10.23;;
19554;SDS011;9924;50.828;6.440;2023-03-01T05:40:33;17.90;;;9.53;;
19554;SDS011;9924;50.828;6.440;2023-03-01T05:43:18;18.10;;;8.93;;
19554;SDS011;9924;50.828;6.440;2023-03-01T05:46:02;16.17;;;9.17;;
19554;SDS011;9924;50.828;6.440;2023-03-01T05:48:46;17.47;;;9.40;;
19554;SDS011;9924;50.828;6.440;2023-03-01T05:51:32;19.47;;;9.53;;
19554;SDS011;9924;50.828;6.440;2023-03-01T05:54:18;14.23;;;8.77;;
19554;SDS011;9924;50.828;6.440;2023-03-01T05:57:04;15.83;;;9.63;;
19554;SDS011;9924;50.828;6.440;2023-03-01T05:59:48;22.07;;;10.53;;
19554;SDS011;9924;50.828;6.440;2023-03-01T06:02:34;17.43;;;9.47;;
19554;SDS011;9924;50.828;6.440;2023-03-01T06:05:18;17.67;;;9.40;;
19554;SDS011;9924;50.828;6.440;2023-03-01T06:08:03;19.27;;;9.83;;
19554;SDS011;9924;50.828;6.440;2023-03-01T06:10:47;19.17;;;10.37;;
19554;SDS011;9924;50.828;6.440;2023-03-01T06:13:32;19.53;;;10.40;;
19554;SDS011;9924;50.828;6.440;2023-03-01T06:16:16;24.07;;;11.10;;
19554;SDS011;9924;50.828;6.440;2023-03-01T06:19:01;22.93;;;10.93;;
19554;SDS011;9924;50.828;6.440;2023-03-01T06:21:45;22.50;;;10.77;;
19554;SDS011;9924;50.828;6.440;2023-03-01T06:24:30;20.53;;;11.23;;
19554;SDS011;9924;50.828;6.440;2023-03-01T06:27:15;22.70;;;10.47;;
19554;SDS011;9924;50.828;6.440;2023-03-01T06:29:59;19.70;;;10.87;;
19554;SDS011;9924;50.828;6.440;2023-03-01T06:32:45;20.43;;;10.07;;
19554;SDS011;9924;50.828;6.440;2023-03-01T06:35:30;24.10;;;11.50;;
19554;SDS011;9924;50.828;6.440;2023-03-01T06:38:16;20.90;;;10.40;;
19554;SDS011;9924;50.828;6.440;2023-03-01T06:41:02;20.57;;;10.60;;
19554;SDS011;9924;50.828;6.440;2023-03-01T06:43:46;21.00;;;11.07;;
19554;SDS011;9924;50.828;6.440;2023-03-01T06:46:31;20.07;;;10.10;;
19554;SDS011;9924;50.828;6.440;2023-03-01T06:49:16;24.83;;;12.33;;
19554;SDS011;9924;50.828;6.440;2023-03-01T06:52:01;20.83;;;11.17;;
19554;SDS011;9924;50.828;6.440;2023-03-01T06:54:46;23.87;;;12.23;;
19554;SDS011;9924;50.828;6.440;2023-03-01T06:57:30;24.03;;;12.53;;
19554;SDS011;9924;50.828;6.440;2023-03-01T07:00:15;23.00;;;12.90;;
19554;SDS011;9924;50.828;6.440;2023-03-01T07:03:00;30.73;;;13.70;;
19554;SDS011;9924;50.828;6.440;2023-03-01T07:05:48;28.30;;;14.10;;
19554;SDS011;9924;50.828;6.440;2023-03-01T07:08:33;27.90;;;13.60;;
19554;SDS011;9924;50.828;6.440;2023-03-01T07:11:18;25.50;;;12.80;;
19554;SDS011;9924;50.828;6.440;2023-03-01T07:14:02;21.80;;;12.23;;
19554;SDS011;9924;50.828;6.440;2023-03-01T07:16:47;20.97;;;11.73;;
19554;SDS011;9924;50.828;6.440;2023-03-01T07:19:33;21.57;;;11.90;;
19554;SDS011;9924;50.828;6.440;2023-03-01T07:22:17;22.20;;;10.87;;
19554;SDS011;9924;50.828;6.440;2023-03-01T07:25:03;20.50;;;11.37;;
19554;SDS011;9924;50.828;6.440;2023-03-01T07:27:51;20.80;;;11.13;;
19554;SDS011;9924;50.828;6.440;2023-03-01T07:30:36;19.20;;;10.30;;
19554;SDS011;9924;50.828;6.440;2023-03-01T07:33:20;16.33;;;9.60;;
19554;SDS011;9924;50.828;6.440;2023-03-01T07:36:05;18.57;;;9.93;;
19554;SDS011;9924;50.828;6.440;2023-03-01T07:38:51;18.27;;;9.67;;
19554;SDS011;9924;50.828;6.440;2023-03-01T07:41:35;15.33;;;10.20;;
19554;SDS011;9924;50.828;6.440;2023-03-01T07:44:20;17.57;;;10.73;;
19554;SDS011;9924;50.828;6.440;2023-03-01T07:47:05;20.53;;;10.23;;
19554;SDS011;9924;50.828;6.440;2023-03-01T07:49:49;17.67;;;10.53;;
19554;SDS011;9924;50.828;6.440;2023-03-01T07:52:33;17.50;;;10.27;;
19554;SDS011;9924;50.828;6.440;2023-03-01T07:55:18;16.97;;;9.87;;
19554;SDS011;9924;50.828;6.440;2023-03-01T07:58:03;17.93;;;10.50;;
19554;SDS011;9924;50.828;6.440;2023-03-01T08:00:48;16.37;;;10.13;;
19554;SDS011;9924;50.828;6.440;2023-03-01T08:03:32;22.33;;;11.57;;
19554;SDS011;9924;50.828;6.440;2023-03-01T08:06:17;17.93;;;10.50;;
19554;SDS011;9924;50.828;6.440;2023-03-01T08:09:02;18.47;;;11.07;;
19554;SDS011;9924;50.828;6.440;2023-03-01T08:11:47;22.63;;;11.80;;
19554;SDS011;9924;50.828;6.440;2023-03-01T08:14:31;23.83;;;11.97;;
19554;SDS011;9924;50.828;6.440;2023-03-01T08:17:16;21.43;;;12.10;;
19554;SDS011;9924;50.828;6.440;2023-03-01T08:20:01;24.33;;;12.77;;
19554;SDS011;9924;50.828;6.440;2023-03-01T08:22:47;24.00;;;13.33;;
19554;SDS011;9924;50.828;6.440;2023-03-01T08:25:32;24.07;;;12.10;;
19554;SDS011;9924;50.828;6.440;2023-03-01T08:28:16;23.90;;;13.07;;
19554;SDS011;9924;50.828;6.440;2023-03-01T08:31:01;21.33;;;12.07;;
19554;SDS011;9924;50.828;6.440;2023-03-01T08:33:46;21.37;;;12.73;;
19554;SDS011;9924;50.828;6.440;2023-03-01T08:36:39;19.73;;;12.03;;
19554;SDS011;9924;50.828;6.440;2023-03-01T08:39:25;27.10;;;13.53;;
19554;SDS011;9924;50.828;6.440;2023-03-01T08:42:10;26.53;;;12.43;;
19554;SDS011;9924;50.828;6.440;2023-03-01T08:44:54;22.57;;;12.53;;
19554;SDS011;9924;50.828;6.440;2023-03-01T08:47:40;19.10;;;11.77;;
19554;SDS011;9924;50.828;6.440;2023-03-01T08:50:25;19.97;;;11.13;;
19554;SDS011;9924;50.828;6.440;2023-03-01T08:53:09;22.20;;;11.70;;
19554;SDS011;9924;50.828;6.440;2023-03-01T08:55:53;25.70;;;11.90;;
19554;SDS011;9924;50.828;6.440;2023-03-01T08:58:38;19.67;;;11.50;;
19554;SDS011;9924;50.828;6.440;2023-03-01T09:01:23;20.80;;;10.23;;
19554;SDS011;9924;50.828;6.440;2023-03-01T09:04:07;22.20;;;11.00;;
19554;SDS011;9924;50.828;6.440;2023-03-01T09:06:52;18.73;;;10.70;;
19554;SDS011;9924;50.828;6.440;2023-03-01T09:09:37;18.00;;;10.77;;
19554;SDS011;9924;50.828;6.440;2023-03-01T09:12:21;18.63;;;10.97;;
19554;SDS011;9924;50.828;6.440;2023-03-01T09:15:06;21.37;;;11.13;;
19554;SDS011;9924;50.828;6.440;2023-03-01T09:17:51;19.53;;;11.93;;
19554;SDS011;9924;50.828;6.440;2023-03-01T09:20:36;23.47;;;12.07;;
19554;SDS011;9924;50.828;6.440;2023-03-01T09:23:21;20.93;;;11.20;;
19554;SDS011;9924;50.828;6.440;2023-03-01T09:26:06;23.37;;;12.17;;
19554;SDS011;9924;50.828;6.440;2023-03-01T09:28:54;19.77;;;10.33;;
19554;SDS011;9924;50.828;6.440;2023-03-01T09:31:40;23.10;;;11.90;;
19554;SDS011;9924;50.828;6.440;2023-03-01T09:34:24;19.63;;;10.67;;
19554;SDS011;9924;50.828;6.440;2023-03-01T09:37:09;24.60;;;11.27;;
19554;SDS011;9924;50.828;6.440;2023-03-01T09:39:53;18.17;;;10.27;;
19554;SDS011;9924;50.828;6.440;2023-03-01T09:42:44;21.20;;;11.43;;
19554;SDS011;9924;50.828;6.440;2023-03-01T09:45:44;18.53;;;10.20;;
19554;SDS011;9924;50.828;6.440;2023-03-01T09:49:18;18.67;;;10.73;;
19554;SDS011;9924;50.828;6.440;2023-03-01T09:51:57;17.53;;;10.40;;
19554;SDS011;9924;50.828;6.440;2023-03-01T09:54:49;21.97;;;12.13;;
19554;SDS011;9924;50.828;6.440;2023-03-01T10:00:39;21.10;;;11.57;;
19554;SDS011;9924;50.828;6.440;2023-03-01T10:03:53;17.93;;;10.83;;
19554;SDS011;9924;50.828;6.440;2023-03-01T10:09:54;18.90;;;11.23;;
19554;SDS011;9924;50.828;6.440;2023-03-01T10:12:39;20.40;;;11.30;;
19554;SDS011;9924;50.828;6.440;2023-03-01T10:15:28;17.08;;;10.32;;
19554;SDS011;9924;50.828;6.440;2023-03-01T10:18:26;22.13;;;11.75;;
19554;SDS011;9924;50.828;6.440;2023-03-01T10:21:15;18.52;;;10.60;;
19554;SDS011;9924;50.828;6.440;2023-03-01T10:24:12;19.02;;;10.68;;
19554;SDS011;9924;50.828;6.440;2023-03-01T10:27:00;22.05;;;10.95;;
19554;SDS011;9924;50.828;6.440;2023-03-01T10:30:50;19.27;;;11.15;;
19554;SDS011;9924;50.828;6.440;2023-03-01T10:33:29;19.52;;;10.35;;
19554;SDS011;9924;50.828;6.440;2023-03-01T10:36:16;18.13;;;10.77;;
19554;SDS011;9924;50.828;6.440;2023-03-01T10:39:01;17.05;;;10.40;;
19554;SDS011;9924;50.828;6.440;2023-03-01T10:45:29;17.98;;;11.38;;
19554;SDS011;9924;50.828;6.440;2023-03-01T10:48:19;18.67;;;10.70;;
19554;SDS011;9924;50.828;6.440;2023-03-01T10:51:07;18.42;;;11.15;;
19554;SDS011;9924;50.828;6.440;2023-03-01T10:53:58;16.70;;;10.00;;
19554;SDS011;9924;50.828;6.440;2023-03-01T10:56:50;19.20;;;10.25;;
19554;SDS011;9924;50.828;6.440;2023-03-01T10:59:38;18.48;;;9.98;;
19554;SDS011;9924;50.828;6.440;2023-03-01T11:02:29;18.92;;;10.35;;
19554;SDS011;9924;50.828;6.440;2023-03-01T11:08:03;18.77;;;10.50;;
19554;SDS011;9924;50.828;6.440;2023-03-01T11:10:47;16.42;;;10.40;;
19554;SDS011;9924;50.828;6.440;2023-03-01T11:13:32;17.23;;;10.45;;
19554;SDS011;9924;50.828;6.440;2023-03-01T11:19:19;20.40;;;10.77;;
19554;SDS011;9924;50.828;6.440;2023-03-01T11:22:07;18.52;;;10.30;;
19554;SDS011;9924;50.828;6.440;2023-03-01T11:24:56;18.55;;;10.35;;
19554;SDS011;9924;50.828;6.440;2023-03-01T11:27:43;16.35;;;9.90;;
19554;SDS011;9924;50.828;6.440;2023-03-01T11:30:39;18.95;;;10.38;;
19554;SDS011;9924;50.828;6.440;2023-03-01T11:36:46;17.73;;;9.98;;
19554;SDS011;9924;50.828;6.440;2023-03-01T11:39:40;16.67;;;10.07;;
19554;SDS011;9924;50.828;6.440;2023-03-01T11:42:37;17.75;;;10.27;;
19554;SDS011;9924;50.828;6.440;2023-03-01T11:45:35;21.15;;;10.55;;
19554;SDS011;9924;50.828;6.440;2023-03-01T11:48:34;15.68;;;10.27;;
19554;SDS011;9924;50.828;6.440;2023-03-01T11:57:41;14.27;;;9.98;;
19554;SDS011;9924;50.828;6.440;2023-03-01T12:07:11;20.85;;;10.75;;
19554;SDS011;9924;50.828;6.440;2023-03-01T12:10:29;16.33;;;10.93;;
19554;SDS011;9924;50.828;6.440;2023-03-01T12:26:20;20.35;;;11.27;;
19554;SDS011;9924;50.828;6.440;2023-03-01T12:36:12;17.88;;;10.25;;
19554;SDS011;9924;50.828;6.440;2023-03-01T12:39:34;14.77;;;9.35;;
19554;SDS011;9924;50.828;6.440;2023-03-01T12:42:31;16.20;;;10.40;;
19554;SDS011;9924;50.828;6.440;2023-03-01T12:48:25;21.95;;;11.88;;
19554;SDS011;9924;50.828;6.440;2023-03-01T12:51:23;21.50;;;13.00;;
19554;SDS011;9924;50.828;6.440;2023-03-01T12:54:16;16.95;;;10.80;;
19554;SDS011;9924;50.828;6.440;2023-03-01T13:06:12;18.35;;;9.40;;
19554;SDS011;9924;50.828;6.440;2023-03-01T13:09:28;17.08;;;10.13;;
19554;SDS011;9924;50.828;6.440;2023-03-01T13:15:45;16.02;;;9.73;;
19554;SDS011;9924;50.828;6.440;2023-03-01T13:18:32;15.05;;;9.10;;
19554;SDS011;9924;50.828;6.440;2023-03-01T13:21:28;16.02;;;9.77;;
19554;SDS011;9924;50.828;6.440;2023-03-01T13:27:18;20.15;;;9.15;;
19554;SDS011;9924;50.828;6.440;2023-03-01T13:39:27;12.90;;;8.50;;
19554;SDS011;9924;50.828;6.440;2023-03-01T13:42:41;16.88;;;9.32;;
19554;SDS011;9924;50.828;6.440;2023-03-01T13:46:00;10.60;;;7.82;;
19554;SDS011;9924;50.828;6.440;2023-03-01T13:48:38;13.00;;;7.80;;
19554;SDS011;9924;50.828;6.440;2023-03-01T13:51:23;12.07;;;8.05;;
19554;SDS011;9924;50.828;6.440;2023-03-01T13:54:11;14.40;;;9.02;;
19554;SDS011;9924;50.828;6.440;2023-03-01T13:56:58;15.75;;;8.90;;
19554;SDS011;9924;50.828;6.440;2023-03-01T13:59:47;18.40;;;9.65;;
19554;SDS011;9924;50.828;6.440;2023-03-01T14:02:32;31.67;;;16.10;;
19554;SDS011;9924;50.828;6.440;2023-03-01T14:05:18;18.10;;;11.82;;
19554;SDS011;9924;50.828;6.440;2023-03-01T14:08:14;16.10;;;8.90;;
19554;SDS011;9924;50.828;6.440;2023-03-01T14:20:12;15.57;;;8.65;;
19554;SDS011;9924;50.828;6.440;2023-03-01T14:23:08;14.02;;;8.77;;
19554;SDS011;9924;50.828;6.440;2023-03-01T14:25:57;13.73;;;8.73;;
19554;SDS011;9924;50.828;6.440;2023-03-01T14:28:41;12.98;;;8.65;;
19554;SDS011;9924;50.828;6.440;2023-03-01T14:31:38;15.98;;;9.15;;
19554;SDS011;9924;50.828;6.440;2023-03-01T14:34:24;13.55;;;8.52;;
19554;SDS011;9924;50.828;6.440;2023-03-01T14:37:11;14.52;;;9.52;;
19554;SDS011;9924;50.828;6.440;2023-03-01T14:40:02;14.75;;;8.82;;
19554;SDS011;9924;50.828;6.440;2023-03-01T14:42:48;13.27;;;8.68;;
19554;SDS011;9924;50.828;6.440;2023-03-01T14:45:32;16.77;;;8.85;;
19554;SDS011;9924;50.828;6.440;2023-03-01T14:48:17;17.08;;;9.13;;
19554;SDS011;9924;50.828;6.440;2023-03-01T14:51:04;13.75;;;8.75;;
19554;SDS011;9924;50.828;6.440;2023-03-01T14:53:49;14.82;;;8.98;;
19554;SDS011;9924;50.828;6.440;2023-03-01T14:56:43;12.82;;;8.43;;
19554;SDS011;9924;50.828;6.440;2023-03-01T14:59:29;16.23;;;8.60;;
19554;SDS011;9924;50.828;6.440;2023-03-01T15:02:18;15.38;;;8.45;;
19554;SDS011;9924;50.828;6.440;2023-03-01T15:05:04;17.27;;;8.23;;
19554;SDS011;9924;50.828;6.440;2023-03-01T15:07:50;12.88;;;8.75;;
19554;SDS011;9924;50.828;6.440;2023-03-01T15:10:35;16.10;;;7.97;;
19554;SDS011;9924;50.828;6.440;2023-03-01T15:13:22;14.65;;;7.82;;
19554;SDS011;9924;50.828;6.440;2023-03-01T15:18:55;14.05;;;7.22;;
19554;SDS011;9924;50.828;6.440;2023-03-01T15:21:47;12.13;;;7.35;;
19554;SDS011;9924;50.828;6.440;2023-03-01T15:24:33;12.35;;;6.90;;
19554;SDS011;9924;50.828;6.440;2023-03-01T15:27:21;14.93;;;7.40;;
19554;SDS011;9924;50.828;6.440;2023-03-01T15:30:13;15.60;;;7.20;;
19554;SDS011;9924;50.828;6.440;2023-03-01T15:33:16;12.48;;;7.40;;
19554;SDS011;9924;50.828;6.440;2023-03-01T15:39:30;16.80;;;8.00;;
19554;SDS011;9924;50.828;6.440;2023-03-01T15:48:01;12.85;;;7.43;;
19554;SDS011;9924;50.828;6.440;2023-03-01T15:50:54;13.68;;;7.57;;
19554;SDS011;9924;50.828;6.440;2023-03-01T15:53:40;13.68;;;7.20;;
19554;SDS011;9924;50.828;6.440;2023-03-01T15:56:25;13.05;;;7.30;;
19554;SDS011;9924;50.828;6.440;2023-03-01T15:59:10;11.05;;;7.40;;
19554;SDS011;9924;50.828;6.440;2023-03-01T16:01:57;12.52;;;6.95;;
19554;SDS011;9924;50.828;6.440;2023-03-01T16:04:41;12.25;;;6.75;;
19554;SDS011;9924;50.828;6.440;2023-03-01T16:07:26;11.52;;;7.30;;
19554;SDS011;9924;50.828;6.440;2023-03-01T16:10:11;14.35;;;7.80;;
19554;SDS011;9924;50.828;6.440;2023-03-01T16:12:57;10.48;;;6.75;;
19554;SDS011;9924;50.828;6.440;2023-03-01T16:15:41;14.00;;;7.47;;
19554;SDS011;9924;50.828;6.440;2023-03-01T16:18:29;14.07;;;7.65;;
19554;SDS011;9924;50.828;6.440;2023-03-01T16:21:15;12.07;;;7.88;;
19554;SDS011;9924;50.828;6.440;2023-03-01T16:24:04;11.52;;;6.47;;
19554;SDS011;9924;50.828;6.440;2023-03-01T16:26:49;12.30;;;6.68;;
19554;SDS011;9924;50.828;6.440;2023-03-01T16:29:33;15.30;;;7.68;;
19554;SDS011;9924;50.828;6.440;2023-03-01T16:32:18;13.23;;;7.15;;
19554;SDS011;9924;50.828;6.440;2023-03-01T16:35:02;15.05;;;7.05;;
19554;SDS011;9924;50.828;6.440;2023-03-01T16:37:47;14.40;;;6.80;;
19554;SDS011;9924;50.828;6.440;2023-03-01T16:40:32;12.75;;;7.18;;
19554;SDS011;9924;50.828;6.440;2023-03-01T16:43:17;14.73;;;7.35;;
19554;SDS011;9924;50.828;6.440;2023-03-01T16:46:25;13.00;;;7.18;;
19554;SDS011;9924;50.828;6.440;2023-03-01T16:49:09;12.93;;;6.40;;
19554;SDS011;9924;50.828;6.440;2023-03-01T16:51:53;14.95;;;7.15;;
19554;SDS011;9924;50.828;6.440;2023-03-01T16:54:38;15.45;;;7.15;;
19554;SDS011;9924;50.828;6.440;2023-03-01T16:57:24;14.57;;;6.97;;
19554;SDS011;9924;50.828;6.440;2023-03-01T17:00:10;12.75;;;6.68;;
19554;SDS011;9924;50.828;6.440;2023-03-01T17:02:56;11.85;;;6.30;;
19554;SDS011;9924;50.828;6.440;2023-03-01T17:05:40;10.48;;;5.43;;
19554;SDS011;9924;50.828;6.440;2023-03-01T17:08:25;14.15;;;7.07;;
19554;SDS011;9924;50.828;6.440;2023-03-01T17:11:14;12.20;;;6.07;;
19554;SDS011;9924;50.828;6.440;2023-03-01T17:14:01;9.80;;;5.90;;
19554;SDS011;9924;50.828;6.440;2023-03-01T17:16:45;11.05;;;6.97;;
19554;SDS011;9924;50.828;6.440;2023-03-01T17:19:30;12.70;;;6.10;;
19554;SDS011;9924;50.828;6.440;2023-03-01T17:22:16;14.40;;;6.30;;
19554;SDS011;9924;50.828;6.440;2023-03-01T17:25:01;10.27;;;6.15;;
19554;SDS011;9924;50.828;6.440;2023-03-01T17:27:46;11.18;;;6.45;;
19554;SDS011;9924;50.828;6.440;2023-03-01T17:30:30;11.77;;;6.00;;
19554;SDS011;9924;50.828;6.440;2023-03-01T17:33:14;12.10;;;6.28;;
19554;SDS011;9924;50.828;6.440;2023-03-01T17:35:59;17.58;;;6.13;;
19554;SDS011;9924;50.828;6.440;2023-03-01T17:38:44;13.35;;;7.03;;
19554;SDS011;9924;50.828;6.440;2023-03-01T17:41:30;10.98;;;5.90;;
19554;SDS011;9924;50.828;6.440;2023-03-01T17:44:14;20.40;;;8.38;;
19554;SDS011;9924;50.828;6.440;2023-03-01T17:46:59;18.13;;;7.50;;
19554;SDS011;9924;50.828;6.440;2023-03-01T17:49:44;16.30;;;8.37;;
19554;SDS011;9924;50.828;6.440;2023-03-01T17:52:29;23.53;;;9.60;;
19554;SDS011;9924;50.828;6.440;2023-03-01T17:55:14;21.03;;;10.90;;
19554;SDS011;9924;50.828;6.440;2023-03-01T17:57:58;25.07;;;12.20;;
19554;SDS011;9924;50.828;6.440;2023-03-01T18:00:43;25.70;;;11.40;;
19554;SDS011;9924;50.828;6.440;2023-03-01T18:03:27;23.10;;;11.87;;
19554;SDS011;9924;50.828;6.440;2023-03-01T18:06:13;31.47;;;12.43;;
19554;SDS011;9924;50.828;6.440;2023-03-01T18:09:08;22.40;;;10.50;;
19554;SDS011;9924;50.828;6.440;2023-03-01T18:11:54;21.20;;;9.40;;
19554;SDS011;9924;50.828;6.440;2023-03-01T18:14:39;20.37;;;9.40;;
19554;SDS011;9924;50.828;6.440;2023-03-01T18:17:24;20.33;;;8.87;;
19554;SDS011;9924;50.828;6.440;2023-03-01T18:20:08;17.60;;;7.40;;
19554;SDS011;9924;50.828;6.440;2023-03-01T18:22:53;14.00;;;7.07;;
19554;SDS011;9924;50.828;6.440;2023-03-01T18:25:38;14.97;;;6.53;;
19554;SDS011;9924;50.828;6.440;2023-03-01T18:28:23;11.30;;;6.67;;
19554;SDS011;9924;50.828;6.440;2023-03-01T18:31:09;12.33;;;6.90;;
19554;SDS011;9924;50.828;6.440;2023-03-01T18:33:53;13.60;;;7.07;;